This is the latest recevied weather packets stored in our database for station/object M0TUM-1. If no packets are shown the sender has not sent any weather packets the latest 10 day(s).
| Time | Temp. | Humidity | Pressure | Rain* | Wind** | Luminosity | Snow |
|---|---|---|---|---|---|---|---|
| 1777582121 | 11.67° C | 63% | 1023.3 hPa | 0 mm | - | 0 W/m² | - |
| 1777581815 | 11.67° C | 62% | 1023.1 hPa | 0 mm | - | 0 W/m² | - |
| 1777580903 | 11.67° C | 60% | 1023.2 hPa | 0 mm | - | 0 W/m² | - |
| 1777580295 | 12.22° C | 59% | 1023.2 hPa | 0 mm | - | 0 W/m² | - |
| 1777579687 | 12.22° C | 59% | 1023 hPa | 0 mm | - | 0 W/m² | - |
| 1777579081 | 12.78° C | 58% | 1022.8 hPa | 0 mm | - | 0 W/m² | - |
| 1777577255 | 13.33° C | 52% | 1023 hPa | 0 mm | - | 0 W/m² | - |
| 1777576647 | 13.89° C | 49% | 1023 hPa | 0 mm | - | 3 W/m² | - |
| 1777575127 | 15° C | 42% | 1023 hPa | 0 mm | - | 15 W/m² | - |
| 1777574216 | 15.56° C | 39% | 1023.1 hPa | 0 mm | - | 25 W/m² | - |
| 1777573911 | 16.11° C | 38% | 1023.1 hPa | 0 mm | - | 27 W/m² | - |
| 1777573611 | 16.11° C | 38% | 1023.1 hPa | 0 mm | - | 30 W/m² | - |
| 1777573308 | 16.11° C | 37% | 1022.9 hPa | 0 mm | - | 34 W/m² | - |
| 1777571488 | 16.67° C | 35% | 1023.2 hPa | 0 mm | - | 78 W/m² | - |
| 1777570576 | 17.22° C | 34% | 1023.3 hPa | 0 mm | - | 106 W/m² | - |
| 1777570274 | 17.22° C | 34% | 1023.1 hPa | 0 mm | - | 122 W/m² | - |
| 1777569969 | 17.22° C | 34% | 1023.2 hPa | 0 mm | - | 131 W/m² | - |
| 1777569665 | 17.22° C | 32% | 1023.4 hPa | 0 mm | - | 146 W/m² | - |
| 1777569361 | 17.22° C | 32% | 1023.3 hPa | 0 mm | - | 161 W/m² | - |
| 1777569057 | 17.78° C | 32% | 1023.6 hPa | 0 mm | - | 171 W/m² | - |
| 1777568754 | 17.22° C | 33% | 1023.4 hPa | 0 mm | - | 177 W/m² | - |
| 1777568452 | 17.22° C | 32% | 1023.4 hPa | 0 mm | - | 193 W/m² | - |
| 1777567541 | 17.78° C | 32% | 1023.5 hPa | 0 mm | - | 227 W/m² | - |
| 1777566937 | 17.78° C | 31% | 1023.5 hPa | 0 mm | - | 259 W/m² | - |
| 1777566029 | 17.78° C | 31% | 1023.7 hPa | 0 mm | - | 298 W/m² | - |
* Rain latest hour (hover to see other rain measurements)
** Current wind speed in m/s (hover to see current wind gust speed)